sensor_id;sensor_type;location;lat;lon;timestamp;pressure;altitude;pressure_sealevel;temperature;humidity
50282;BME280;36176;51.506;10.272;2023-02-27T00:00:00;100475.84;;;-4.90;86.54
50282;BME280;36176;51.506;10.272;2023-02-27T00:02:27;100484.44;;;-4.91;86.87
50282;BME280;36176;51.506;10.272;2023-02-27T00:04:55;100481.84;;;-4.91;86.48
50282;BME280;36176;51.506;10.272;2023-02-27T00:07:23;100483.47;;;-4.95;87.18
50282;BME280;36176;51.506;10.272;2023-02-27T00:09:52;100484.25;;;-4.97;86.87
50282;BME280;36176;51.506;10.272;2023-02-27T00:12:19;100478.94;;;-5.02;86.08
50282;BME280;36176;51.506;10.272;2023-02-27T00:14:46;100489.22;;;-5.03;86.49
50282;BME280;36176;51.506;10.272;2023-02-27T00:17:13;100486.47;;;-5.08;86.69
50282;BME280;36176;51.506;10.272;2023-02-27T00:19:39;100484.69;;;-5.10;88.06
50282;BME280;36176;51.506;10.272;2023-02-27T00:22:06;100489.06;;;-5.08;87.60
50282;BME280;36176;51.506;10.272;2023-02-27T00:24:33;100488.25;;;-5.07;87.63
50282;BME280;36176;51.506;10.272;2023-02-27T00:27:00;100495.88;;;-5.10;88.31
50282;BME280;36176;51.506;10.272;2023-02-27T00:29:27;100496.72;;;-5.11;88.54
50282;BME280;36176;51.506;10.272;2023-02-27T00:31:54;100495.75;;;-5.15;88.17
50282;BME280;36176;51.506;10.272;2023-02-27T00:34:21;100495.56;;;-5.21;87.92
50282;BME280;36176;51.506;10.272;2023-02-27T00:36:48;100499.69;;;-5.26;88.28
50282;BME280;36176;51.506;10.272;2023-02-27T00:39:15;100497.03;;;-5.29;88.55
50282;BME280;36176;51.506;10.272;2023-02-27T00:41:42;100498.66;;;-5.31;88.32
50282;BME280;36176;51.506;10.272;2023-02-27T00:44:09;100496.81;;;-5.35;88.37
50282;BME280;36176;51.506;10.272;2023-02-27T00:46:36;100504.47;;;-5.38;88.86
50282;BME280;36176;51.506;10.272;2023-02-27T00:49:03;100504.41;;;-5.40;88.73
50282;BME280;36176;51.506;10.272;2023-02-27T00:51:30;100505.25;;;-5.41;88.89
50282;BME280;36176;51.506;10.272;2023-02-27T00:53:57;100505.13;;;-5.44;88.27
50282;BME280;36176;51.506;10.272;2023-02-27T00:56:24;100505.88;;;-5.46;89.34
50282;BME280;36176;51.506;10.272;2023-02-27T00:58:51;100507.53;;;-5.48;89.41
50282;BME280;36176;51.506;10.272;2023-02-27T01:01:18;100508.28;;;-5.52;89.38
50282;BME280;36176;51.506;10.272;2023-02-27T01:03:45;100517.56;;;-5.58;89.97
50282;BME280;36176;51.506;10.272;2023-02-27T01:06:12;100508.91;;;-5.60;89.59
50282;BME280;36176;51.506;10.272;2023-02-27T01:08:39;100504.53;;;-5.61;89.42
50282;BME280;36176;51.506;10.272;2023-02-27T01:11:06;100505.38;;;-5.62;90.32
50282;BME280;36176;51.506;10.272;2023-02-27T01:13:33;100504.44;;;-5.64;90.40
50282;BME280;36176;51.506;10.272;2023-02-27T01:16:00;100499.22;;;-5.65;89.38
50282;BME280;36176;51.506;10.272;2023-02-27T01:18:27;100494.88;;;-5.66;90.54
50282;BME280;36176;51.506;10.272;2023-02-27T01:20:55;100502.63;;;-5.66;90.77
50282;BME280;36176;51.506;10.272;2023-02-27T01:23:22;100506.78;;;-5.70;89.46
50282;BME280;36176;51.506;10.272;2023-02-27T01:25:49;100500.13;;;-5.65;90.43
50282;BME280;36176;51.506;10.272;2023-02-27T01:28:16;100497.47;;;-5.66;90.02
50282;BME280;36176;51.506;10.272;2023-02-27T01:30:43;100500.66;;;-5.73;90.43
50282;BME280;36176;51.506;10.272;2023-02-27T01:33:10;100496.28;;;-5.76;90.53
50282;BME280;36176;51.506;10.272;2023-02-27T01:35:37;100496.13;;;-5.81;90.68
50282;BME280;36176;51.506;10.272;2023-02-27T01:38:04;100495.06;;;-5.86;90.13
50282;BME280;36176;51.506;10.272;2023-02-27T01:40:38;100489.63;;;-5.95;89.55
50282;BME280;36176;51.506;10.272;2023-02-27T01:43:11;100488.53;;;-6.02;90.03
50282;BME280;36176;51.506;10.272;2023-02-27T01:45:41;100498.75;;;-6.05;89.14
50282;BME280;36176;51.506;10.272;2023-02-27T01:48:16;100503.03;;;-6.05;89.95
50282;BME280;36176;51.506;10.272;2023-02-27T01:50:52;100499.59;;;-6.04;89.95
50282;BME280;36176;51.506;10.272;2023-02-27T01:53:20;100501.22;;;-6.08;90.08
50282;BME280;36176;51.506;10.272;2023-02-27T01:55:59;100511.41;;;-6.11;90.78
50282;BME280;36176;51.506;10.272;2023-02-27T01:58:28;100509.59;;;-6.13;90.55
50282;BME280;36176;51.506;10.272;2023-02-27T02:00:55;100503.56;;;-6.14;90.75
50282;BME280;36176;51.506;10.272;2023-02-27T02:03:29;100513.88;;;-6.14;92.09
50282;BME280;36176;51.506;10.272;2023-02-27T02:05:59;100512.16;;;-6.13;91.30
50282;BME280;36176;51.506;10.272;2023-02-27T02:08:31;100513.09;;;-6.11;92.31
50282;BME280;36176;51.506;10.272;2023-02-27T02:11:00;100508.72;;;-6.14;91.35
50282;BME280;36176;51.506;10.272;2023-02-27T02:13:27;100506.97;;;-6.15;90.73
50282;BME280;36176;51.506;10.272;2023-02-27T02:16:32;100519.72;;;-6.19;91.22
50282;BME280;36176;51.506;10.272;2023-02-27T02:27:40;100502.78;;;-6.35;91.35
50282;BME280;36176;51.506;10.272;2023-02-27T02:44:28;100491.91;;;-6.51;90.99
50282;BME280;36176;51.506;10.272;2023-02-27T02:50:26;100492.41;;;-6.59;90.89
50282;BME280;36176;51.506;10.272;2023-02-27T02:53:40;100504.59;;;-6.55;91.08
50282;BME280;36176;51.506;10.272;2023-02-27T02:56:11;100502.84;;;-6.56;90.87
50282;BME280;36176;51.506;10.272;2023-02-27T02:59:03;100501.03;;;-6.59;90.51
50282;BME280;36176;51.506;10.272;2023-02-27T03:01:48;100492.41;;;-6.59;90.46
50282;BME280;36176;51.506;10.272;2023-02-27T03:04:27;100505.88;;;-6.67;90.99
50282;BME280;36176;51.506;10.272;2023-02-27T03:09:47;100516.97;;;-6.69;90.42
50282;BME280;36176;51.506;10.272;2023-02-27T03:12:19;100516.84;;;-6.72;90.73
50282;BME280;36176;51.506;10.272;2023-02-27T03:15:00;100518.59;;;-6.71;90.06
50282;BME280;36176;51.506;10.272;2023-02-27T03:17:42;100523.69;;;-6.73;90.26
50282;BME280;36176;51.506;10.272;2023-02-27T03:20:14;100519.53;;;-6.69;91.16
50282;BME280;36176;51.506;10.272;2023-02-27T03:22:46;100525.38;;;-6.73;90.79
50282;BME280;36176;51.506;10.272;2023-02-27T03:25:16;100526.91;;;-6.78;90.09
50282;BME280;36176;51.506;10.272;2023-02-27T03:27:51;100530.16;;;-6.82;90.87
50282;BME280;36176;51.506;10.272;2023-02-27T03:30:39;100536.22;;;-6.82;91.99
50282;BME280;36176;51.506;10.272;2023-02-27T03:36:14;100535.59;;;-6.76;91.63
50282;BME280;36176;51.506;10.272;2023-02-27T03:38:56;100534.91;;;-6.72;93.04
50282;BME280;36176;51.506;10.272;2023-02-27T03:41:29;100540.91;;;-6.72;92.15
50282;BME280;36176;51.506;10.272;2023-02-27T03:44:10;100545.31;;;-6.69;92.41
50282;BME280;36176;51.506;10.272;2023-02-27T03:46:40;100542.75;;;-6.69;92.75
50282;BME280;36176;51.506;10.272;2023-02-27T03:49:07;100538.41;;;-6.70;92.59
50282;BME280;36176;51.506;10.272;2023-02-27T03:51:35;100541.88;;;-6.70;92.23
50282;BME280;36176;51.506;10.272;2023-02-27T03:54:06;100549.34;;;-6.76;91.88
50282;BME280;36176;51.506;10.272;2023-02-27T03:56:41;100549.16;;;-6.80;92.43
50282;BME280;36176;51.506;10.272;2023-02-27T03:59:10;100551.72;;;-6.80;92.27
50282;BME280;36176;51.506;10.272;2023-02-27T04:01:37;100548.28;;;-6.81;92.43
50282;BME280;36176;51.506;10.272;2023-02-27T04:04:08;100550.78;;;-6.82;92.49
50282;BME280;36176;51.506;10.272;2023-02-27T04:06:38;100551.69;;;-6.82;92.44
50282;BME280;36176;51.506;10.272;2023-02-27T04:12:32;100567.66;;;-6.91;92.41
50282;BME280;36176;51.506;10.272;2023-02-27T04:15:23;100564.88;;;-6.95;91.80
50282;BME280;36176;51.506;10.272;2023-02-27T04:18:22;100574.22;;;-6.99;92.55
50282;BME280;36176;51.506;10.272;2023-02-27T04:21:10;100581.75;;;-7.03;91.75
50282;BME280;36176;51.506;10.272;2023-02-27T04:26:29;100576.72;;;-7.00;92.21
50282;BME280;36176;51.506;10.272;2023-02-27T04:29:09;100581.22;;;-6.95;92.93
50282;BME280;36176;51.506;10.272;2023-02-27T04:31:53;100576.13;;;-6.93;92.39
50282;BME280;36176;51.506;10.272;2023-02-27T04:34:40;100574.56;;;-6.90;93.21
50282;BME280;36176;51.506;10.272;2023-02-27T04:37:29;100574.69;;;-6.87;92.23
50282;BME280;36176;51.506;10.272;2023-02-27T04:40:09;100580.53;;;-6.91;92.35
50282;BME280;36176;51.506;10.272;2023-02-27T04:42:42;100582.94;;;-6.95;92.24
50282;BME280;36176;51.506;10.272;2023-02-27T04:45:14;100582.94;;;-6.95;92.40
50282;BME280;36176;51.506;10.272;2023-02-27T04:47:48;100589.72;;;-6.97;92.57
50282;BME280;36176;51.506;10.272;2023-02-27T04:50:25;100583.41;;;-7.04;92.29
50282;BME280;36176;51.506;10.272;2023-02-27T04:53:00;100588.75;;;-6.99;92.41
50282;BME280;36176;51.506;10.272;2023-02-27T04:55:38;100587.00;;;-7.00;91.58
50282;BME280;36176;51.506;10.272;2023-02-27T04:58:17;100586.38;;;-6.95;92.16
50282;BME280;36176;51.506;10.272;2023-02-27T05:00:51;100591.78;;;-6.89;92.68
50282;BME280;36176;51.506;10.272;2023-02-27T05:03:27;100586.88;;;-6.82;92.17
50282;BME280;36176;51.506;10.272;2023-02-27T05:05:58;100588.53;;;-6.85;91.84
50282;BME280;36176;51.506;10.272;2023-02-27T05:08:34;100588.56;;;-6.83;92.01
50282;BME280;36176;51.506;10.272;2023-02-27T05:11:10;100590.53;;;-6.77;91.92
50282;BME280;36176;51.506;10.272;2023-02-27T05:14:05;100592.66;;;-6.67;92.31
50282;BME280;36176;51.506;10.272;2023-02-27T05:16:51;100590.63;;;-6.53;91.78
50282;BME280;36176;51.506;10.272;2023-02-27T05:19:20;100585.41;;;-6.32;92.02
50282;BME280;36176;51.506;10.272;2023-02-27T05:22:02;100587.34;;;-6.04;92.24
50282;BME280;36176;51.506;10.272;2023-02-27T05:30:25;100604.16;;;-5.43;91.53
50282;BME280;36176;51.506;10.272;2023-02-27T05:33:05;100611.06;;;-5.42;92.13
50282;BME280;36176;51.506;10.272;2023-02-27T05:35:37;100604.63;;;-5.29;91.75
50282;BME280;36176;51.506;10.272;2023-02-27T05:38:13;100604.91;;;-5.22;90.65
50282;BME280;36176;51.506;10.272;2023-02-27T05:40:52;100611.13;;;-5.17;90.59
50282;BME280;36176;51.506;10.272;2023-02-27T05:43:27;100605.31;;;-5.09;90.46
50282;BME280;36176;51.506;10.272;2023-02-27T05:46:01;100601.81;;;-5.11;90.84
50282;BME280;36176;51.506;10.272;2023-02-27T05:48:37;100600.31;;;-5.05;91.10
50282;BME280;36176;51.506;10.272;2023-02-27T05:51:07;100599.41;;;-5.05;90.99
50282;BME280;36176;51.506;10.272;2023-02-27T05:53:40;100603.28;;;-5.18;90.52
50282;BME280;36176;51.506;10.272;2023-02-27T05:56:11;100605.69;;;-5.24;91.03
50282;BME280;36176;51.506;10.272;2023-02-27T05:58:49;100597.94;;;-5.24;90.75
50282;BME280;36176;51.506;10.272;2023-02-27T06:01:16;100597.78;;;-5.29;90.75
50282;BME280;36176;51.506;10.272;2023-02-27T06:03:43;100602.72;;;-5.35;90.21
50282;BME280;36176;51.506;10.272;2023-02-27T06:06:14;100604.34;;;-5.37;90.34
50282;BME280;36176;51.506;10.272;2023-02-27T06:08:42;100613.72;;;-5.41;90.63
50282;BME280;36176;51.506;10.272;2023-02-27T06:11:10;100611.78;;;-5.46;90.24
50282;BME280;36176;51.506;10.272;2023-02-27T06:13:37;100610.41;;;-5.61;90.61
50282;BME280;36176;51.506;10.272;2023-02-27T06:16:12;100616.25;;;-5.66;90.58
50282;BME280;36176;51.506;10.272;2023-02-27T06:18:40;100624.75;;;-5.69;90.88
50282;BME280;36176;51.506;10.272;2023-02-27T06:21:11;100628.09;;;-5.71;90.70
50282;BME280;36176;51.506;10.272;2023-02-27T06:23:39;100624.66;;;-5.72;90.50
50282;BME280;36176;51.506;10.272;2023-02-27T06:26:06;100623.81;;;-5.71;91.08
50282;BME280;36176;51.506;10.272;2023-02-27T06:28:33;100624.66;;;-5.72;91.39
50282;BME280;36176;51.506;10.272;2023-02-27T06:31:00;100635.69;;;-5.76;90.70
50282;BME280;36176;51.506;10.272;2023-02-27T06:33:27;100627.84;;;-5.79;91.21
50282;BME280;36176;51.506;10.272;2023-02-27T06:35:54;100622.66;;;-5.79;91.27
50282;BME280;36176;51.506;10.272;2023-02-27T06:38:21;100629.47;;;-5.81;91.21
50282;BME280;36176;51.506;10.272;2023-02-27T06:40:50;100626.72;;;-5.86;90.83
50282;BME280;36176;51.506;10.272;2023-02-27T06:43:16;100637.03;;;-5.86;91.41
50282;BME280;36176;51.506;10.272;2023-02-27T06:45:44;100637.94;;;-5.37;91.37
50282;BME280;36176;51.506;10.272;2023-02-27T06:48:10;100638.03;;;-4.03;90.88
50282;BME280;36176;51.506;10.272;2023-02-27T06:50:38;100640.00;;;-2.70;87.53
50282;BME280;36176;51.506;10.272;2023-02-27T06:53:05;100639.84;;;-1.64;83.96
50282;BME280;36176;51.506;10.272;2023-02-27T06:55:32;100645.16;;;-1.14;80.40
50282;BME280;36176;51.506;10.272;2023-02-27T06:57:59;100648.72;;;-0.60;78.80
50282;BME280;36176;51.506;10.272;2023-02-27T07:00:30;100646.38;;;0.14;76.14
50282;BME280;36176;51.506;10.272;2023-02-27T07:02:57;100658.44;;;0.70;74.27
50282;BME280;36176;51.506;10.272;2023-02-27T07:05:24;100645.66;;;0.95;73.63
50282;BME280;36176;51.506;10.272;2023-02-27T07:07:53;100654.88;;;1.47;72.64
50282;BME280;36176;51.506;10.272;2023-02-27T07:10:20;100656.13;;;1.97;70.39
50282;BME280;36176;51.506;10.272;2023-02-27T07:12:48;100659.88;;;2.45;69.80
50282;BME280;36176;51.506;10.272;2023-02-27T07:15:15;100661.81;;;2.95;68.56
50282;BME280;36176;51.506;10.272;2023-02-27T07:17:43;100664.53;;;3.37;66.16
50282;BME280;36176;51.506;10.272;2023-02-27T07:20:10;100664.53;;;3.55;64.95
50282;BME280;36176;51.506;10.272;2023-02-27T07:22:38;100669.78;;;3.41;63.92
50282;BME280;36176;51.506;10.272;2023-02-27T07:25:07;100672.34;;;3.09;64.80
50282;BME280;36176;51.506;10.272;2023-02-27T07:27:35;100673.06;;;2.73;64.70
50282;BME280;36176;51.506;10.272;2023-02-27T07:30:02;100671.25;;;2.53;65.25
50282;BME280;36176;51.506;10.272;2023-02-27T07:32:29;100671.34;;;2.75;65.29
50282;BME280;36176;51.506;10.272;2023-02-27T07:34:57;100682.81;;;3.15;64.88
50282;BME280;36176;51.506;10.272;2023-02-27T07:37:24;100676.78;;;3.87;64.62
50282;BME280;36176;51.506;10.272;2023-02-27T07:39:53;100689.00;;;4.10;61.62
50282;BME280;36176;51.506;10.272;2023-02-27T07:42:23;58343.00;;;-145.31;100.00
50282;BME280;36176;51.506;10.272;2023-02-27T07:44:49;58343.00;;;-145.31;100.00
50282;BME280;36176;51.506;10.272;2023-02-27T07:47:16;58343.00;;;-145.31;100.00
50282;BME280;36176;51.506;10.272;2023-02-27T07:49:54;58343.00;;;-145.31;100.00
50282;BME280;36176;51.506;10.272;2023-02-27T07:52:23;58343.00;;;-145.31;100.00
50282;BME280;36176;51.506;10.272;2023-02-27T07:54:50;58343.00;;;-145.31;100.00
50282;BME280;36176;51.506;10.272;2023-02-27T07:57:18;58343.00;;;-145.31;100.00
50282;BME280;36176;51.506;10.272;2023-02-27T07:59:47;58343.00;;;-145.31;100.00
50282;BME280;36176;51.506;10.272;2023-02-27T08:02:17;58343.00;;;-145.31;100.00
50282;BME280;36176;51.506;10.272;2023-02-27T08:04:44;58343.00;;;-145.31;100.00
50282;BME280;36176;51.506;10.272;2023-02-27T08:07:12;58343.00;;;-145.31;100.00
50282;BME280;36176;51.506;10.272;2023-02-27T08:09:39;58343.00;;;-145.31;100.00
50282;BME280;36176;51.506;10.272;2023-02-27T08:12:05;58343.00;;;-145.31;100.00
50282;BME280;36176;51.506;10.272;2023-02-27T08:14:33;58343.00;;;-145.31;100.00
50282;BME280;36176;51.506;10.272;2023-02-27T08:17:05;58343.00;;;-145.31;100.00
50282;BME280;36176;51.506;10.272;2023-02-27T08:19:32;58343.00;;;-145.31;100.00
50282;BME280;36176;51.506;10.272;2023-02-27T08:22:02;58343.00;;;-145.31;100.00
50282;BME280;36176;51.506;10.272;2023-02-27T08:24:29;58343.00;;;-145.31;100.00
50282;BME280;36176;51.506;10.272;2023-02-27T08:26:56;58343.00;;;-145.31;100.00
50282;BME280;36176;51.506;10.272;2023-02-27T08:29:23;58343.00;;;-145.31;100.00
50282;BME280;36176;51.506;10.272;2023-02-27T08:31:50;58343.00;;;-145.31;100.00
50282;BME280;36176;51.506;10.272;2023-02-27T08:34:18;58343.00;;;-145.31;100.00
50282;BME280;36176;51.506;10.272;2023-02-27T08:36:45;58343.00;;;-145.31;100.00
50282;BME280;36176;51.506;10.272;2023-02-27T08:39:12;58343.00;;;-145.31;100.00
50282;BME280;36176;51.506;10.272;2023-02-27T08:41:39;58343.00;;;-145.31;100.00
50282;BME280;36176;51.506;10.272;2023-02-27T08:44:06;58343.00;;;-145.31;100.00
50282;BME280;36176;51.506;10.272;2023-02-27T08:46:33;58343.00;;;-145.31;100.00
50282;BME280;36176;51.506;10.272;2023-02-27T08:49:00;58343.00;;;-145.31;100.00
50282;BME280;36176;51.506;10.272;2023-02-27T08:51:27;58343.00;;;-145.31;100.00
50282;BME280;36176;51.506;10.272;2023-02-27T08:53:55;58343.00;;;-145.31;100.00
50282;BME280;36176;51.506;10.272;2023-02-27T08:56:25;58343.00;;;-145.31;100.00
50282;BME280;36176;51.506;10.272;2023-02-27T08:58:54;58343.00;;;-145.31;100.00
50282;BME280;36176;51.506;10.272;2023-02-27T09:01:21;58343.00;;;-145.31;100.00
50282;BME280;36176;51.506;10.272;2023-02-27T09:03:48;58343.00;;;-145.31;100.00
50282;BME280;36176;51.506;10.272;2023-02-27T09:06:15;58343.00;;;-145.31;100.00
50282;BME280;36176;51.506;10.272;2023-02-27T09:08:42;58343.00;;;-145.31;100.00
50282;BME280;36176;51.506;10.272;2023-02-27T09:11:09;58343.00;;;-145.31;100.00
50282;BME280;36176;51.506;10.272;2023-02-27T09:13:36;58343.00;;;-145.31;100.00
50282;BME280;36176;51.506;10.272;2023-02-27T09:16:03;58343.00;;;-145.31;100.00
50282;BME280;36176;51.506;10.272;2023-02-27T09:18:30;58343.00;;;-145.31;100.00
50282;BME280;36176;51.506;10.272;2023-02-27T09:20:57;58343.00;;;-145.31;100.00
50282;BME280;36176;51.506;10.272;2023-02-27T09:23:24;58343.00;;;-145.31;100.00
50282;BME280;36176;51.506;10.272;2023-02-27T09:25:51;58343.00;;;-145.31;100.00
50282;BME280;36176;51.506;10.272;2023-02-27T09:28:18;58343.00;;;-145.31;100.00
50282;BME280;36176;51.506;10.272;2023-02-27T09:30:46;58343.00;;;-145.31;100.00
50282;BME280;36176;51.506;10.272;2023-02-27T09:33:13;58343.00;;;-145.31;100.00
50282;BME280;36176;51.506;10.272;2023-02-27T09:35:40;58343.00;;;-145.31;100.00
50282;BME280;36176;51.506;10.272;2023-02-27T09:38:08;58343.00;;;-145.31;100.00
50282;BME280;36176;51.506;10.272;2023-02-27T09:40:40;58343.00;;;-145.31;100.00
50282;BME280;36176;51.506;10.272;2023-02-27T09:43:12;58343.00;;;-145.31;100.00
50282;BME280;36176;51.506;10.272;2023-02-27T09:45:40;58343.00;;;-145.31;100.00
50282;BME280;36176;51.506;10.272;2023-02-27T09:48:18;58343.00;;;-145.31;100.00
50282;BME280;36176;51.506;10.272;2023-02-27T09:50:47;58343.00;;;-145.31;100.00
50282;BME280;36176;51.506;10.272;2023-02-27T09:53:28;58343.00;;;-145.31;100.00
50282;BME280;36176;51.506;10.272;2023-02-27T09:56:23;58343.00;;;-145.31;100.00
50282;BME280;36176;51.506;10.272;2023-02-27T09:58:57;58343.00;;;-145.31;100.00
50282;BME280;36176;51.506;10.272;2023-02-27T10:01:41;58343.00;;;-145.31;100.00
50282;BME280;36176;51.506;10.272;2023-02-27T10:06:51;58343.00;;;-145.31;100.00
50282;BME280;36176;51.506;10.272;2023-02-27T10:12:08;58343.00;;;-145.31;100.00
50282;BME280;36176;51.506;10.272;2023-02-27T10:14:50;58343.00;;;-145.31;100.00
50282;BME280;36176;51.506;10.272;2023-02-27T10:17:23;58343.00;;;-145.31;100.00
50282;BME280;36176;51.506;10.272;2023-02-27T10:19:53;58343.00;;;-145.31;100.00
50282;BME280;36176;51.506;10.272;2023-02-27T10:22:33;58343.00;;;-145.31;100.00
50282;BME280;36176;51.506;10.272;2023-02-27T10:25:12;58343.00;;;-145.31;100.00
50282;BME280;36176;51.506;10.272;2023-02-27T10:28:00;58343.00;;;-145.31;100.00
50282;BME280;36176;51.506;10.272;2023-02-27T10:30:31;58343.00;;;-145.31;100.00
50282;BME280;36176;51.506;10.272;2023-02-27T10:33:14;58343.00;;;-145.31;100.00
50282;BME280;36176;51.506;10.272;2023-02-27T10:35:44;58343.00;;;-145.31;100.00
50282;BME280;36176;51.506;10.272;2023-02-27T10:38:16;58343.00;;;-145.31;100.00
50282;BME280;36176;51.506;10.272;2023-02-27T10:40:46;58343.00;;;-145.31;100.00
50282;BME280;36176;51.506;10.272;2023-02-27T10:43:16;58343.00;;;-145.31;100.00
50282;BME280;36176;51.506;10.272;2023-02-27T10:45:44;58343.00;;;-145.31;100.00
50282;BME280;36176;51.506;10.272;2023-02-27T10:48:12;58343.00;;;-145.31;100.00
50282;BME280;36176;51.506;10.272;2023-02-27T10:50:42;58343.00;;;-145.31;100.00
50282;BME280;36176;51.506;10.272;2023-02-27T10:55:56;58343.00;;;-145.31;100.00
50282;BME280;36176;51.506;10.272;2023-02-27T10:58:24;58343.00;;;-145.31;100.00
50282;BME280;36176;51.506;10.272;2023-02-27T11:00:54;58343.00;;;-145.31;100.00
50282;BME280;36176;51.506;10.272;2023-02-27T11:03:42;58343.00;;;-145.31;100.00
50282;BME280;36176;51.506;10.272;2023-02-27T11:06:21;58343.00;;;-145.31;100.00
50282;BME280;36176;51.506;10.272;2023-02-27T11:12:28;58343.00;;;-145.31;100.00
50282;BME280;36176;51.506;10.272;2023-02-27T11:17:43;58343.00;;;-145.31;100.00
50282;BME280;36176;51.506;10.272;2023-02-27T11:25:42;58343.00;;;-145.31;100.00
50282;BME280;36176;51.506;10.272;2023-02-27T11:28:23;58343.00;;;-145.31;100.00
50282;BME280;36176;51.506;10.272;2023-02-27T11:31:23;58343.00;;;-145.31;100.00
50282;BME280;36176;51.506;10.272;2023-02-27T11:33:54;58343.00;;;-145.31;100.00
50282;BME280;36176;51.506;10.272;2023-02-27T11:36:45;58343.00;;;-145.31;100.00
50282;BME280;36176;51.506;10.272;2023-02-27T11:41:52;58343.00;;;-145.31;100.00
50282;BME280;36176;51.506;10.272;2023-02-27T11:44:24;58343.00;;;-145.31;100.00
50282;BME280;36176;51.506;10.272;2023-02-27T11:47:14;58343.00;;;-145.31;100.00
50282;BME280;36176;51.506;10.272;2023-02-27T11:52:42;58343.00;;;-145.31;100.00
50282;BME280;36176;51.506;10.272;2023-02-27T11:55:14;58343.00;;;-145.31;100.00
50282;BME280;36176;51.506;10.272;2023-02-27T11:57:46;58343.00;;;-145.31;100.00
50282;BME280;36176;51.506;10.272;2023-02-27T12:00:23;58343.00;;;-145.31;100.00
50282;BME280;36176;51.506;10.272;2023-02-27T12:03:21;58343.00;;;-145.31;100.00
50282;BME280;36176;51.506;10.272;2023-02-27T12:05:56;58343.00;;;-145.31;100.00
50282;BME280;36176;51.506;10.272;2023-02-27T12:11:02;58343.00;;;-145.31;100.00
50282;BME280;36176;51.506;10.272;2023-02-27T12:13:42;58343.00;;;-145.31;100.00
50282;BME280;36176;51.506;10.272;2023-02-27T12:19:15;58343.00;;;-145.31;100.00
50282;BME280;36176;51.506;10.272;2023-02-27T12:21:49;58343.00;;;-145.31;100.00
50282;BME280;36176;51.506;10.272;2023-02-27T12:24:23;58343.00;;;-145.31;100.00
50282;BME280;36176;51.506;10.272;2023-02-27T12:27:02;58343.00;;;-145.31;100.00
50282;BME280;36176;51.506;10.272;2023-02-27T12:29:40;58343.00;;;-145.31;100.00
50282;BME280;36176;51.506;10.272;2023-02-27T12:32:32;58343.00;;;-145.31;100.00
50282;BME280;36176;51.506;10.272;2023-02-27T12:35:23;58343.00;;;-145.31;100.00
50282;BME280;36176;51.506;10.272;2023-02-27T12:37:54;58343.00;;;-145.31;100.00
50282;BME280;36176;51.506;10.272;2023-02-27T12:40:29;58343.00;;;-145.31;100.00
50282;BME280;36176;51.506;10.272;2023-02-27T12:46:12;58343.00;;;-145.31;100.00
50282;BME280;36176;51.506;10.272;2023-02-27T12:51:36;58343.00;;;-145.31;100.00
50282;BME280;36176;51.506;10.272;2023-02-27T12:54:23;58343.00;;;-145.31;100.00
50282;BME280;36176;51.506;10.272;2023-02-27T13:00:02;58343.00;;;-145.31;100.00
50282;BME280;36176;51.506;10.272;2023-02-27T13:02:55;58343.00;;;-145.31;100.00
50282;BME280;36176;51.506;10.272;2023-02-27T13:05:46;58343.00;;;-145.31;100.00
50282;BME280;36176;51.506;10.272;2023-02-27T13:08:45;58343.00;;;-145.31;100.00
50282;BME280;36176;51.506;10.272;2023-02-27T13:14:37;58343.00;;;-145.31;100.00
50282;BME280;36176;51.506;10.272;2023-02-27T13:17:25;58343.00;;;-145.31;100.00
50282;BME280;36176;51.506;10.272;2023-02-27T13:20:25;58343.00;;;-145.31;100.00
50282;BME280;36176;51.506;10.272;2023-02-27T13:25:46;58343.00;;;-145.31;100.00
50282;BME280;36176;51.506;10.272;2023-02-27T13:28:18;58343.00;;;-145.31;100.00
50282;BME280;36176;51.506;10.272;2023-02-27T13:31:12;58343.00;;;-145.31;100.00
50282;BME280;36176;51.506;10.272;2023-02-27T13:33:52;58343.00;;;-145.31;100.00
50282;BME280;36176;51.506;10.272;2023-02-27T13:39:02;58343.00;;;-145.31;100.00
50282;BME280;36176;51.506;10.272;2023-02-27T13:41:33;100593.84;;;6.99;48.31
50282;BME280;36176;51.506;10.272;2023-02-27T13:50:01;100603.31;;;6.46;46.86
50282;BME280;36176;51.506;10.272;2023-02-27T13:52:33;100603.72;;;6.12;47.95
50282;BME280;36176;51.506;10.272;2023-02-27T13:55:01;100611.78;;;5.95;50.00
50282;BME280;36176;51.506;10.272;2023-02-27T13:57:38;100608.66;;;5.53;49.86
50282;BME280;36176;51.506;10.272;2023-02-27T14:00:23;100620.16;;;5.37;51.21
50282;BME280;36176;51.506;10.272;2023-02-27T14:02:53;100620.19;;;5.34;51.55
50282;BME280;36176;51.506;10.272;2023-02-27T14:05:32;100625.56;;;5.19;51.69
50282;BME280;36176;51.506;10.272;2023-02-27T14:08:15;100618.63;;;5.08;52.43
50282;BME280;36176;51.506;10.272;2023-02-27T14:11:27;100619.56;;;4.97;52.70
50282;BME280;36176;51.506;10.272;2023-02-27T14:13:56;100616.16;;;4.84;52.88
50282;BME280;36176;51.506;10.272;2023-02-27T14:22:01;100618.00;;;4.63;54.80
50282;BME280;36176;51.506;10.272;2023-02-27T14:24:38;100624.16;;;4.56;54.67
50282;BME280;36176;51.506;10.272;2023-02-27T14:27:28;100625.03;;;4.47;55.16
50282;BME280;36176;51.506;10.272;2023-02-27T14:29:59;100627.69;;;4.40;55.52
50282;BME280;36176;51.506;10.272;2023-02-27T14:32:34;100626.88;;;4.27;55.76
50282;BME280;36176;51.506;10.272;2023-02-27T14:35:04;100629.53;;;4.10;55.96
50282;BME280;36176;51.506;10.272;2023-02-27T14:37:31;100635.69;;;3.94;56.30
50282;BME280;36176;51.506;10.272;2023-02-27T14:39:59;100630.47;;;3.66;54.04
50282;BME280;36176;51.506;10.272;2023-02-27T14:42:43;100635.72;;;3.38;52.63
50282;BME280;36176;51.506;10.272;2023-02-27T14:45:18;100645.28;;;3.12;52.48